Cheikh El Mokrani — C6WD5 — position and weather

sailwx.info

Track history (hours):
 
Tides and Currents Weather Stations Pressure Air Temp Water Temp Dewpoint Dewpoint Depression Visibility Wind Speed Wind Dir Waves Ship Positions

Cheikh El Mokrani

Last reported at 2016-Feb-07 09:31 UTC. Time now 2016-Feb-09 22:36 UTC.
Position N 35°59' W 005°02'.

Length 220 m; draft 8.1 m.

Type: Ship (hazmat cat D). MMSI: 309979000.

Date/timePositionNaut miles runAvg speedWind from/ knotsBaromVisibWave heightAir tempDewpointWater temp
2016-Feb-07 09:31N 35°59' W 005°02'1919.7
2016-Feb-07 08:34N 35°58' W 005°26'1817.5
2016-Feb-07 07:31N 35°54' W 005°48'11112.4
2016-Feb-06 22:32N 36°15' W 008°03'1212.0
2016-Feb-06 21:32N 36°18' W 008°17'1212.1
2016-Feb-06 20:33N 36°20' W 008°32'1212.2
2016-Feb-06 19:32N 36°23' W 008°46'1111.2
2016-Feb-06 18:32N 36°26' W 008°60'1313.0
2016-Feb-06 17:33N 36°29' W 009°15'1211.7
2016-Feb-06 16:33N 36°36' W 009°28'1212.4
2016-Feb-06 15:32N 36°45' W 009°37'1616.5
2016-Feb-06 14:32N 37°02' W 009°37'1716.8
2016-Feb-06 13:33N 37°16' W 009°25'1615.6
2016-Feb-06 12:32N 37°29' W 009°15'1515.5
2016-Feb-06 11:33N 37°42' W 009°04'1413.9
2016-Feb-06 10:33N 37°54' W 008°55'4 3.5
2016-Feb-06 09:31N 37°56' W 008°51'0 0.0
2016-Feb-06 08:31N 37°56' W 008°51'0 0.0
2016-Feb-06 07:33N 37°56' W 008°51'0 0.0
2016-Feb-06 06:33N 37°56' W 008°51'0 0.0
2016-Feb-06 05:33N 37°56' W 008°51'0 0.0
2016-Feb-06 04:33N 37°56' W 008°51'0 0.0
2016-Feb-06 03:33N 37°56' W 008°51'0 0.0
2016-Feb-06 02:33N 37°56' W 008°51'0 0.0
2016-Feb-06 01:33N 37°56' W 008°51'0 0.0
2016-Feb-06 00:33N 37°56' W 008°51'0 0.0
2016-Feb-05 23:33N 37°56' W 008°51'0 0.0
2016-Feb-05 22:33N 37°56' W 008°51'0 0.0
2016-Feb-05 21:33N 37°56' W 008°51'0 0.0
2016-Feb-05 20:33N 37°56' W 008°51'0 0.0
2016-Feb-05 19:33N 37°56' W 008°51'0 0.0
2016-Feb-05 18:33N 37°56' W 008°51'0 0.0
2016-Feb-05 17:33N 37°56' W 008°51'0 0.0
2016-Feb-05 16:33N 37°56' W 008°51'0 0.0
2016-Feb-05 15:33N 37°56' W 008°51'0 0.0
2016-Feb-05 14:33N 37°56' W 008°51'0 0.0
2016-Feb-05 13:33N 37°56' W 008°51'0 0.0
2016-Feb-05 12:33N 37°56' W 008°51'0 0.0
2016-Feb-05 11:33N 37°56' W 008°51'0 0.0
2016-Feb-05 10:33N 37°56' W 008°51'0 0.0
2016-Feb-05 09:33N 37°56' W 008°51'0 0.0
2016-Feb-05 08:33N 37°56' W 008°51'0 0.4
2016-Feb-05 07:33N 37°56' W 008°52'6 5.6
2016-Feb-05 06:32N 37°51' W 008°55'8 7.9
2016-Feb-05 05:33N 37°44' W 008°60'8 7.9
2016-Feb-05 04:33N 37°37' W 009°04'8 8.0
2016-Feb-05 03:33N 37°30' W 009°08'8 7.5
2016-Feb-05 02:33N 37°23' W 009°12'7 6.6
2016-Feb-05 01:33N 37°17' W 009°16'6 5.8
2016-Feb-05 00:33N 37°12' W 009°19'6 6.4
2016-Feb-04 23:33N 37°06' W 009°22'6 5.9
2016-Feb-04 22:33N 37°01' W 009°25'6 5.5
2016-Feb-04 21:30N 36°55' W 009°25'5 5.5
2016-Feb-04 20:33N 36°50' W 009°23'6 6.4
2016-Feb-04 19:33N 36°46' W 009°18'8 6.0
2016-Feb-04 18:12N 36°41' W 009°10'5 7.0
2016-Feb-04 17:30N 36°39' W 009°04'7 7.0
2016-Feb-04 16:30N 36°37' W 008°56'6 6.7
2016-Feb-04 15:33N 36°35' W 008°48'7 6.9
2016-Feb-04 14:33N 36°33' W 008°40'7 7.0
2016-Feb-04 13:33N 36°31' W 008°32'10 6.6
2016-Feb-04 12:06N 36°29' W 008°20'4 6.9
2016-Feb-04 11:30N 36°27' W 008°15'7 7.2
2016-Feb-04 10:30N 36°25' W 008°07'124 6.9
2016-Feb-03 16:31N 35°58' W 005°37'1313.4
2016-Feb-03 15:33N 36°02' W 005°21'20612.8
2016-Feb-02 23:26N 36°07' W 001°07'1211.4
2016-Feb-02 22:23N 36°06' W 000°52'1011.9
2016-Feb-02 21:33N 36°05' W 000°40'1311.8
2016-Feb-02 20:29N 36°03' W 000°24'16 6.8
2016-Feb-02 18:08N 35°49' W 000°15'0 0.0
2016-Feb-02 17:33N 35°49' W 000°15'0 0.0
2016-Feb-02 16:33N 35°49' W 000°15'0 0.0
2016-Feb-02 15:33N 35°49' W 000°15'0 0.0
2016-Feb-02 14:33N 35°49' W 000°15'0 0.0
2016-Feb-02 13:33N 35°49' W 000°15'0 0.0
2016-Feb-02 07:11N 35°49' W 000°15'0 0.0
2016-Feb-02 06:32N 35°49' W 000°16'0 0.0
2016-Feb-02 05:33N 35°49' W 000°15'0 0.0
2016-Feb-02 04:09N 35°49' W 000°15'0 0.0
2016-Feb-02 03:29N 35°49' W 000°15'0 0.0
2016-Feb-02 02:31N 35°49' W 000°16'0 0.0
2016-Feb-02 01:33N 35°49' W 000°15'0 0.0
2016-Feb-02 00:30N 35°49' W 000°15'0 0.0
2016-Feb-01 23:33N 35°49' W 000°16'0 0.0
2016-Feb-01 22:33N 35°49' W 000°15'0 0.0
2016-Feb-01 21:15N 35°49' W 000°15'0 0.0
2016-Feb-01 20:33N 35°49' W 000°15'0 0.0
2016-Feb-01 19:33N 35°49' W 000°15'0 0.0
2016-Feb-01 18:33N 35°49' W 000°16'0 0.0
2016-Feb-01 17:33N 35°49' W 000°15'0 0.0
2016-Feb-01 16:33N 35°49' W 000°16'1 1.4
2016-Feb-01 15:33N 35°50' W 000°15'4 4.0
2016-Feb-01 14:33N 35°52' W 000°11'6215.5
2016-Feb-01 10:33N 36°52' E 000°11'9 8.8
2016-Feb-01 09:32N 37°00' E 000°14'73 9.2
2016-Feb-01 01:32N 38°11' E 000°40'1111.3
2016-Feb-01 00:32N 38°21' E 000°44'3611.4
2016-Jan-31 21:23N 38°56' E 000°58'2111.5
2016-Jan-31 19:33N 39°15' E 001°08'1111.2
2016-Jan-31 18:33N 39°26' E 001°13'1611.4
2016-Jan-31 17:10N 39°41' E 001°20'711.5
2016-Jan-31 16:33N 39°47' E 001°24'1211.7
2016-Jan-31 15:33N 39°58' E 001°30'1111.2
2016-Jan-31 14:34N 40°08' E 001°35'1110.9
2016-Jan-31 13:33N 40°18' E 001°40'1111.1
2016-Jan-31 12:33N 40°29' E 001°46'1211.7
2016-Jan-31 11:34N 40°40' E 001°50'1211.8
2016-Jan-31 10:33N 40°51' E 001°55'1211.7
2016-Jan-31 09:33N 41°03' E 001°59'1414.3
2016-Jan-31 08:32N 41°14' E 002°10'6 3.1
2016-Jan-31 06:32N 41°21' E 002°10'0 0.0
2016-Jan-31 05:32N 41°21' E 002°10'0 0.0
2016-Jan-31 04:33N 41°21' E 002°10'0 0.0
2016-Jan-31 03:23N 41°21' E 002°10'0 0.0
2016-Jan-31 02:33N 41°21' E 002°10'0 0.0
2016-Jan-31 01:33N 41°21' E 002°10'0 0.0
2016-Jan-31 00:14N 41°21' E 002°10'0 0.0
2016-Jan-30 23:33N 41°21' E 002°10'0 0.0
2016-Jan-30 22:33N 41°21' E 002°10'0 0.0
2016-Jan-30 21:33N 41°21' E 002°10'0 0.0
2016-Jan-30 20:31N 41°21' E 002°10'0 0.0
2016-Jan-30 19:32N 41°21' E 002°10'0 0.0
2016-Jan-30 18:33N 41°21' E 002°10'0 0.0
2016-Jan-30 17:33N 41°21' E 002°10'0 0.0
2016-Jan-30 16:33N 41°21' E 002°10'0 0.0
2016-Jan-30 15:33N 41°21' E 002°10'0 0.0
2016-Jan-30 14:33N 41°21' E 002°10'0 0.0
2016-Jan-30 13:33N 41°21' E 002°10'0 0.0
2016-Jan-30 12:33N 41°21' E 002°10'0 0.0
2016-Jan-30 11:15N 41°21' E 002°10'0 0.0
2016-Jan-30 10:33N 41°21' E 002°10'0 0.0
2016-Jan-30 09:33N 41°21' E 002°10'0 0.0
2016-Jan-30 08:33N 41°21' E 002°10'0 0.0
2016-Jan-30 07:33N 41°21' E 002°10'0 0.1
2016-Jan-30 06:30N 41°21' E 002°10'4 4.6
2016-Jan-30 05:33N 41°16' E 002°11'2 2.3
2016-Jan-30 04:33N 41°14' E 002°09'6 5.8
2016-Jan-30 03:33N 41°09' E 002°07'8 7.7
2016-Jan-30 02:33N 41°02' E 002°03'1110.8
2016-Jan-30 01:33N 40°51' E 001°58'7 7.5
2016-Jan-30 00:33N 40°45' E 001°54'7 6.5
2016-Jan-29 23:33N 40°38' E 001°51'7 6.6
2016-Jan-29 22:33N 40°32' E 001°48'7 6.7
2016-Jan-29 21:33N 40°26' E 001°44'7 6.7
2016-Jan-29 20:33N 40°20' E 001°41'7 6.8
2016-Jan-29 19:33N 40°13' E 001°38'8 7.6
2016-Jan-29 18:33N 40°06' E 001°35'9 9.0
2016-Jan-29 17:33N 39°58' E 001°30'9 8.9
2016-Jan-29 16:33N 39°50' E 001°25'14910.5
2016-Jan-29 02:23N 37°29' E 000°23'  
Track history (hours):
 
Tides and Currents Weather Stations Pressure Air Temp Water Temp Dewpoint Dewpoint Depression Visibility Wind Speed Wind Dir Waves Ship Positions

Cheikh El Mokrani

Last reported at 2016-Feb-07 09:31 UTC. Time now 2016-Feb-09 22:36 UTC.
Position N 35°59' W 005°02'.

Length 220 m; draft 8.1 m.

Type: Ship (hazmat cat D). MMSI: 309979000.

Date/timePositionNaut miles runAvg speedWind from/ knotsBaromVisibWave heightAir tempDewpointWater temp
2016-Feb-07 09:31N 35°59' W 005°02'1919.7
2016-Feb-07 08:34N 35°58' W 005°26'1817.5
2016-Feb-07 07:31N 35°54' W 005°48'11112.4
2016-Feb-06 22:32N 36°15' W 008°03'1212.0
2016-Feb-06 21:32N 36°18' W 008°17'1212.1
2016-Feb-06 20:33N 36°20' W 008°32'1212.2
2016-Feb-06 19:32N 36°23' W 008°46'1111.2
2016-Feb-06 18:32N 36°26' W 008°60'1313.0
2016-Feb-06 17:33N 36°29' W 009°15'1211.7
2016-Feb-06 16:33N 36°36' W 009°28'1212.4
2016-Feb-06 15:32N 36°45' W 009°37'1616.5
2016-Feb-06 14:32N 37°02' W 009°37'1716.8
2016-Feb-06 13:33N 37°16' W 009°25'1615.6
2016-Feb-06 12:32N 37°29' W 009°15'1515.5
2016-Feb-06 11:33N 37°42' W 009°04'1413.9
2016-Feb-06 10:33N 37°54' W 008°55'4 3.5
2016-Feb-06 09:31N 37°56' W 008°51'0 0.0
2016-Feb-06 08:31N 37°56' W 008°51'0 0.0
2016-Feb-06 07:33N 37°56' W 008°51'0 0.0
2016-Feb-06 06:33N 37°56' W 008°51'0 0.0
2016-Feb-06 05:33N 37°56' W 008°51'0 0.0
2016-Feb-06 04:33N 37°56' W 008°51'0 0.0
2016-Feb-06 03:33N 37°56' W 008°51'0 0.0
2016-Feb-06 02:33N 37°56' W 008°51'0 0.0
2016-Feb-06 01:33N 37°56' W 008°51'0 0.0
2016-Feb-06 00:33N 37°56' W 008°51'0 0.0
2016-Feb-05 23:33N 37°56' W 008°51'0 0.0
2016-Feb-05 22:33N 37°56' W 008°51'0 0.0
2016-Feb-05 21:33N 37°56' W 008°51'0 0.0
2016-Feb-05 20:33N 37°56' W 008°51'0 0.0
2016-Feb-05 19:33N 37°56' W 008°51'0 0.0
2016-Feb-05 18:33N 37°56' W 008°51'0 0.0
2016-Feb-05 17:33N 37°56' W 008°51'0 0.0
2016-Feb-05 16:33N 37°56' W 008°51'0 0.0
2016-Feb-05 15:33N 37°56' W 008°51'0 0.0
2016-Feb-05 14:33N 37°56' W 008°51'0 0.0
2016-Feb-05 13:33N 37°56' W 008°51'0 0.0
2016-Feb-05 12:33N 37°56' W 008°51'0 0.0
2016-Feb-05 11:33N 37°56' W 008°51'0 0.0
2016-Feb-05 10:33N 37°56' W 008°51'0 0.0
2016-Feb-05 09:33N 37°56' W 008°51'0 0.0
2016-Feb-05 08:33N 37°56' W 008°51'0 0.4
2016-Feb-05 07:33N 37°56' W 008°52'6 5.6
2016-Feb-05 06:32N 37°51' W 008°55'8 7.9
2016-Feb-05 05:33N 37°44' W 008°60'8 7.9
2016-Feb-05 04:33N 37°37' W 009°04'8 8.0
2016-Feb-05 03:33N 37°30' W 009°08'8 7.5
2016-Feb-05 02:33N 37°23' W 009°12'7 6.6
2016-Feb-05 01:33N 37°17' W 009°16'6 5.8
2016-Feb-05 00:33N 37°12' W 009°19'6 6.4
2016-Feb-04 23:33N 37°06' W 009°22'6 5.9
2016-Feb-04 22:33N 37°01' W 009°25'6 5.5
2016-Feb-04 21:30N 36°55' W 009°25'5 5.5
2016-Feb-04 20:33N 36°50' W 009°23'6 6.4
2016-Feb-04 19:33N 36°46' W 009°18'8 6.0
2016-Feb-04 18:12N 36°41' W 009°10'5 7.0
2016-Feb-04 17:30N 36°39' W 009°04'7 7.0
2016-Feb-04 16:30N 36°37' W 008°56'6 6.7
2016-Feb-04 15:33N 36°35' W 008°48'7 6.9
2016-Feb-04 14:33N 36°33' W 008°40'7 7.0
2016-Feb-04 13:33N 36°31' W 008°32'10 6.6
2016-Feb-04 12:06N 36°29' W 008°20'4 6.9
2016-Feb-04 11:30N 36°27' W 008°15'7 7.2
2016-Feb-04 10:30N 36°25' W 008°07'124 6.9
2016-Feb-03 16:31N 35°58' W 005°37'1313.4
2016-Feb-03 15:33N 36°02' W 005°21'20612.8
2016-Feb-02 23:26N 36°07' W 001°07'1211.4
2016-Feb-02 22:23N 36°06' W 000°52'1011.9
2016-Feb-02 21:33N 36°05' W 000°40'1311.8
2016-Feb-02 20:29N 36°03' W 000°24'16 6.8
2016-Feb-02 18:08N 35°49' W 000°15'0 0.0
2016-Feb-02 17:33N 35°49' W 000°15'0 0.0
2016-Feb-02 16:33N 35°49' W 000°15'0 0.0
2016-Feb-02 15:33N 35°49' W 000°15'0 0.0
2016-Feb-02 14:33N 35°49' W 000°15'0 0.0
2016-Feb-02 13:33N 35°49' W 000°15'0 0.0
2016-Feb-02 07:11N 35°49' W 000°15'0 0.0
2016-Feb-02 06:32N 35°49' W 000°16'0 0.0
2016-Feb-02 05:33N 35°49' W 000°15'0 0.0
2016-Feb-02 04:09N 35°49' W 000°15'0 0.0
2016-Feb-02 03:29N 35°49' W 000°15'0 0.0
2016-Feb-02 02:31N 35°49' W 000°16'0 0.0
2016-Feb-02 01:33N 35°49' W 000°15'0 0.0
2016-Feb-02 00:30N 35°49' W 000°15'0 0.0
2016-Feb-01 23:33N 35°49' W 000°16'0 0.0
2016-Feb-01 22:33N 35°49' W 000°15'0 0.0
2016-Feb-01 21:15N 35°49' W 000°15'0 0.0
2016-Feb-01 20:33N 35°49' W 000°15'0 0.0
2016-Feb-01 19:33N 35°49' W 000°15'0 0.0
2016-Feb-01 18:33N 35°49' W 000°16'0 0.0
2016-Feb-01 17:33N 35°49' W 000°15'0 0.0
2016-Feb-01 16:33N 35°49' W 000°16'1 1.4
2016-Feb-01 15:33N 35°50' W 000°15'4 4.0
2016-Feb-01 14:33N 35°52' W 000°11'6215.5
2016-Feb-01 10:33N 36°52' E 000°11'9 8.8
2016-Feb-01 09:32N 37°00' E 000°14'73 9.2
2016-Feb-01 01:32N 38°11' E 000°40'1111.3
2016-Feb-01 00:32N 38°21' E 000°44'3611.4
2016-Jan-31 21:23N 38°56' E 000°58'2111.5
2016-Jan-31 19:33N 39°15' E 001°08'1111.2
2016-Jan-31 18:33N 39°26' E 001°13'1611.4
2016-Jan-31 17:10N 39°41' E 001°20'711.5
2016-Jan-31 16:33N 39°47' E 001°24'1211.7
2016-Jan-31 15:33N 39°58' E 001°30'1111.2
2016-Jan-31 14:34N 40°08' E 001°35'1110.9
2016-Jan-31 13:33N 40°18' E 001°40'1111.1
2016-Jan-31 12:33N 40°29' E 001°46'1211.7
2016-Jan-31 11:34N 40°40' E 001°50'1211.8
2016-Jan-31 10:33N 40°51' E 001°55'1211.7
2016-Jan-31 09:33N 41°03' E 001°59'1414.3
2016-Jan-31 08:32N 41°14' E 002°10'6 3.1
2016-Jan-31 06:32N 41°21' E 002°10'0 0.0
2016-Jan-31 05:32N 41°21' E 002°10'0 0.0
2016-Jan-31 04:33N 41°21' E 002°10'0 0.0
2016-Jan-31 03:23N 41°21' E 002°10'0 0.0
2016-Jan-31 02:33N 41°21' E 002°10'0 0.0
2016-Jan-31 01:33N 41°21' E 002°10'0 0.0
2016-Jan-31 00:14N 41°21' E 002°10'0 0.0
2016-Jan-30 23:33N 41°21' E 002°10'0 0.0
2016-Jan-30 22:33N 41°21' E 002°10'0 0.0
2016-Jan-30 21:33N 41°21' E 002°10'0 0.0
2016-Jan-30 20:31N 41°21' E 002°10'0 0.0
2016-Jan-30 19:32N 41°21' E 002°10'0 0.0
2016-Jan-30 18:33N 41°21' E 002°10'0 0.0
2016-Jan-30 17:33N 41°21' E 002°10'0 0.0
2016-Jan-30 16:33N 41°21' E 002°10'0 0.0
2016-Jan-30 15:33N 41°21' E 002°10'0 0.0
2016-Jan-30 14:33N 41°21' E 002°10'0 0.0
2016-Jan-30 13:33N 41°21' E 002°10'0 0.0
2016-Jan-30 12:33N 41°21' E 002°10'0 0.0
2016-Jan-30 11:15N 41°21' E 002°10'0 0.0
2016-Jan-30 10:33N 41°21' E 002°10'0 0.0
2016-Jan-30 09:33N 41°21' E 002°10'0 0.0
2016-Jan-30 08:33N 41°21' E 002°10'0 0.0
2016-Jan-30 07:33N 41°21' E 002°10'0 0.1
2016-Jan-30 06:30N 41°21' E 002°10'4 4.6
2016-Jan-30 05:33N 41°16' E 002°11'2 2.3
2016-Jan-30 04:33N 41°14' E 002°09'6 5.8
2016-Jan-30 03:33N 41°09' E 002°07'8 7.7
2016-Jan-30 02:33N 41°02' E 002°03'1110.8
2016-Jan-30 01:33N 40°51' E 001°58'7 7.5
2016-Jan-30 00:33N 40°45' E 001°54'7 6.5
2016-Jan-29 23:33N 40°38' E 001°51'7 6.6
2016-Jan-29 22:33N 40°32' E 001°48'7 6.7
2016-Jan-29 21:33N 40°26' E 001°44'7 6.7
2016-Jan-29 20:33N 40°20' E 001°41'7 6.8
2016-Jan-29 19:33N 40°13' E 001°38'8 7.6
2016-Jan-29 18:33N 40°06' E 001°35'9 9.0
2016-Jan-29 17:33N 39°58' E 001°30'9 8.9
2016-Jan-29 16:33N 39°50' E 001°25'14910.5
2016-Jan-29 02:23N 37°29' E 000°23'  

Dump ship's entire track history